TimeEEST,TemperatureF,Dew PointF,Humidity,Sea Level PressureIn,VisibilityMPH,Wind Direction,Wind SpeedMPH,Gust SpeedMPH,PrecipitationIn,Events,Conditions,WindDirDegrees,DateUTC
12:20 AM,59.0,42.8,55,30.06,-9999.0,WNW,6.9,-,N/A,,Clear,300,2012-10-12 21:20:00
12:50 AM,59.0,41.0,51,30.06,-9999.0,West,8.1,-,N/A,,Clear,280,2012-10-12 21:50:00
1:20 AM,60.8,41.0,48,30.06,-9999.0,WNW,8.1,-,N/A,,Clear,290,2012-10-12 22:20:00
1:50 AM,57.2,42.8,59,30.06,-9999.0,WNW,6.9,-,N/A,,Clear,290,2012-10-12 22:50:00
2:20 AM,59.0,41.0,51,30.06,-9999.0,WNW,6.9,-,N/A,,Clear,290,2012-10-12 23:20:00
3:00 AM,57,41,45,29.99,12,WNW,6.9,,,,,290,2012-10-13 00:00:00
3:20 AM,55.4,41.0,58,30.06,-9999.0,WNW,5.8,-,N/A,,Clear,290,2012-10-13 00:20:00
3:50 AM,57.2,41.0,55,30.06,-9999.0,WNW,6.9,-,N/A,,Clear,300,2012-10-13 00:50:00
4:20 AM,55.4,41.0,58,30.06,-9999.0,WNW,5.8,-,N/A,,Clear,290,2012-10-13 01:20:00
4:50 AM,57.2,41.0,55,30.06,-9999.0,WNW,5.8,-,N/A,,Clear,300,2012-10-13 01:50:00
5:50 AM,53.6,41.0,62,30.06,-9999.0,WNW,4.6,-,N/A,,Clear,300,2012-10-13 02:50:00
6:20 AM,53.6,41.0,62,30.06,-9999.0,West,5.8,-,N/A,,Clear,280,2012-10-13 03:20:00
6:50 AM,53.6,42.8,67,30.09,-9999.0,NW,6.9,-,N/A,,Clear,320,2012-10-13 03:50:00
7:20 AM,57.2,42.8,59,30.09,-9999.0,NW,4.6,-,N/A,,Clear,310,2012-10-13 04:20:00
7:50 AM,62.6,44.6,52,30.09,-9999.0,NW,3.5,-,N/A,,Clear,310,2012-10-13 04:50:00
8:20 AM,66.2,42.8,43,30.12,-9999.0,WNW,4.6,-,N/A,,Clear,300,2012-10-13 05:20:00
8:50 AM,66.2,41.0,40,30.12,-9999.0,NW,6.9,-,N/A,,Clear,320,2012-10-13 05:50:00
9:00 AM,67,42,29,30.05,12,NW,6.9,,,,Clear,320,2012-10-13 06:00:00
9:20 AM,68.0,41.0,37,30.12,-9999.0,NNW,5.8,-,N/A,,Clear,330,2012-10-13 06:20:00
10:20 AM,71.6,39.2,31,30.12,-9999.0,North,4.6,-,N/A,,Clear,10,2012-10-13 07:20:00
10:50 AM,73.4,41.0,31,30.12,-9999.0,WNW,3.5,-,N/A,,Clear,300,2012-10-13 07:50:00
11:20 AM,73.4,41.0,31,30.09,-9999.0,Variable,4.6,-,N/A,,Clear,0,2012-10-13 08:20:00
11:50 AM,75.2,41.0,29,30.09,-9999.0,Variable,3.5,-,N/A,,Clear,0,2012-10-13 08:50:00
12:20 PM,75.2,42.8,31,30.09,-9999.0,Variable,4.6,-,N/A,,Clear,0,2012-10-13 09:20:00
12:50 PM,75.2,42.8,31,30.06,-9999.0,East,6.9,-,N/A,,Clear,90,2012-10-13 09:50:00
1:20 PM,77.0,41.0,28,30.06,-9999.0,East,4.6,-,N/A,,Clear,80,2012-10-13 10:20:00
1:50 PM,77.0,41.0,28,30.06,-9999.0,Variable,4.6,-,N/A,,Clear,0,2012-10-13 10:50:00
2:20 PM,77.0,39.2,26,30.06,-9999.0,Variable,3.5,-,N/A,,Clear,0,2012-10-13 11:20:00
3:00 PM,77,37,14,29.98,12,NNE,3.5,,,,Scattered Clouds,20,2012-10-13 12:00:00
3:20 PM,77.0,37.4,24,30.04,6.2,Variable,2.3,-,N/A,,Mostly Cloudy,0,2012-10-13 12:20:00
3:50 PM,78.8,39.2,24,30.04,6.2,Variable,2.3,-,N/A,,Mostly Cloudy,0,2012-10-13 12:50:00
4:50 PM,77.0,39.2,26,30.04,6.2,NE,4.6,-,N/A,,Mostly Cloudy,40,2012-10-13 13:50:00
5:20 PM,75.2,41.0,29,30.04,6.2,ENE,3.5,-,N/A,,Mostly Cloudy,60,2012-10-13 14:20:00
5:50 PM,73.4,41.0,31,30.04,6.2,Calm,Calm,-,N/A,,Mostly Cloudy,0,2012-10-13 14:50:00
6:50 PM,69.8,42.8,38,30.04,-9999.0,East,2.3,-,N/A,,Clear,100,2012-10-13 15:50:00
7:20 PM,69.8,42.8,38,30.04,-9999.0,Calm,Calm,-,N/A,,Clear,0,2012-10-13 16:20:00
7:50 PM,68.0,42.8,40,30.06,-9999.0,Calm,Calm,-,N/A,,Clear,0,2012-10-13 16:50:00
8:20 PM,66.2,41.0,40,30.06,-9999.0,West,3.5,-,N/A,,Clear,260,2012-10-13 17:20:00
8:50 PM,60.8,41.0,48,30.06,-9999.0,WNW,6.9,-,N/A,,Clear,300,2012-10-13 17:50:00
9:00 PM,62,40,33,29.99,12,WNW,6.9,,,,Scattered Clouds,300,2012-10-13 18:00:00
9:20 PM,60.8,41.0,48,30.06,-9999.0,WNW,5.8,-,N/A,,Clear,290,2012-10-13 18:20:00
9:50 PM,60.8,39.2,45,30.06,-9999.0,WSW,5.8,-,N/A,,Clear,250,2012-10-13 18:50:00
10:20 PM,60.8,39.2,45,30.06,-9999.0,WNW,4.6,-,N/A,,Clear,290,2012-10-13 19:20:00
10:50 PM,60.8,39.2,45,30.06,-9999.0,NNW,5.8,-,N/A,,Clear,340,2012-10-13 19:50:00
11:20 PM,57.2,41.0,55,30.06,-9999.0,NW,4.6,-,N/A,,Clear,320,2012-10-13 20:20:00
11:50 PM,55.4,39.2,54,30.06,-9999.0,West,5.8,-,N/A,,Clear,270,2012-10-13 20:50:00